Weather at Sheba (Tel HaShomer) Medical Center

Public forecast

Using degrees Celsius for public forecast. Weather courtesy of forecast.io.

Closest aviation weather report (METAR) to Sheba (Tel HaShomer) Medical Center

Closest report is Ben Gurion International Airport, 3.0 nm (5.5 km) SE. Retrieved 2021/10/27 10:20 UTC (28 minutes ago):

LLBG 271020Z 34009KT 310V020 CAVOK 27/15 Q1015 NOSIG

Closest aviation forecast (TAF) to Sheba (Tel HaShomer) Medical Center

Closest forecast is Ben Gurion International Airport, 3.0 nm (5.5 km) SE. Retrieved 2021/10/27 06:09 UTC (5 hours ago):

TAF TAF LLBG 270504Z 2706/2806 VRB03KT CAVOK BECMG 2707/2709 32010KT BECMG 2716/2718 VRB03KT TX27/2710Z TN17/2804Z